sensor_id;sensor_type;location;lat;lon;timestamp;temperature;humidity
30371;DHT22;17164;48.590;11.410;2023-07-09T00:01:43;17.70;99.90
30371;DHT22;17164;48.590;11.410;2023-07-09T00:04:10;17.60;99.90
30371;DHT22;17164;48.590;11.410;2023-07-09T00:06:37;17.70;99.90
30371;DHT22;17164;48.590;11.410;2023-07-09T00:09:02;17.60;99.90
30371;DHT22;17164;48.590;11.410;2023-07-09T00:11:30;17.60;99.90
30371;DHT22;17164;48.590;11.410;2023-07-09T00:13:56;17.60;99.90
30371;DHT22;17164;48.590;11.410;2023-07-09T00:16:24;17.60;99.90
30371;DHT22;17164;48.590;11.410;2023-07-09T00:18:51;17.60;99.90
30371;DHT22;17164;48.590;11.410;2023-07-09T00:21:18;17.50;99.90
30371;DHT22;17164;48.590;11.410;2023-07-09T00:23:46;17.50;99.90
30371;DHT22;17164;48.590;11.410;2023-07-09T00:26:14;17.50;99.90
30371;DHT22;17164;48.590;11.410;2023-07-09T00:28:44;17.40;99.90
30371;DHT22;17164;48.590;11.410;2023-07-09T00:31:14;17.40;99.90
30371;DHT22;17164;48.590;11.410;2023-07-09T00:33:41;17.40;99.90
30371;DHT22;17164;48.590;11.410;2023-07-09T00:36:16;17.40;99.90
30371;DHT22;17164;48.590;11.410;2023-07-09T00:38:42;17.40;99.90
30371;DHT22;17164;48.590;11.410;2023-07-09T00:41:21;17.30;99.90
30371;DHT22;17164;48.590;11.410;2023-07-09T00:43:48;17.30;99.90
30371;DHT22;17164;48.590;11.410;2023-07-09T00:49:09;17.20;99.90
30371;DHT22;17164;48.590;11.410;2023-07-09T00:51:41;17.10;99.90
30371;DHT22;17164;48.590;11.410;2023-07-09T00:54:33;17.10;99.90
30371;DHT22;17164;48.590;11.410;2023-07-09T00:57:06;17.00;99.90
30371;DHT22;17164;48.590;11.410;2023-07-09T00:59:34;17.00;99.90
30371;DHT22;17164;48.590;11.410;2023-07-09T01:02:00;16.90;99.90
30371;DHT22;17164;48.590;11.410;2023-07-09T01:04:26;16.90;99.90
30371;DHT22;17164;48.590;11.410;2023-07-09T01:06:55;16.90;99.90
30371;DHT22;17164;48.590;11.410;2023-07-09T01:09:22;16.90;99.90
30371;DHT22;17164;48.590;11.410;2023-07-09T01:11:48;16.90;99.90
30371;DHT22;17164;48.590;11.410;2023-07-09T01:14:18;16.80;99.90
30371;DHT22;17164;48.590;11.410;2023-07-09T01:16:49;16.90;99.90
30371;DHT22;17164;48.590;11.410;2023-07-09T01:19:26;16.80;99.90
30371;DHT22;17164;48.590;11.410;2023-07-09T01:21:58;16.80;99.90
30371;DHT22;17164;48.590;11.410;2023-07-09T01:24:53;16.70;99.90
30371;DHT22;17164;48.590;11.410;2023-07-09T01:27:23;16.70;99.90
30371;DHT22;17164;48.590;11.410;2023-07-09T01:29:53;16.60;99.90
30371;DHT22;17164;48.590;11.410;2023-07-09T01:32:20;16.60;99.90
30371;DHT22;17164;48.590;11.410;2023-07-09T01:34:49;16.60;99.90
30371;DHT22;17164;48.590;11.410;2023-07-09T01:37:17;16.50;99.90
30371;DHT22;17164;48.590;11.410;2023-07-09T01:39:43;16.50;99.90
30371;DHT22;17164;48.590;11.410;2023-07-09T01:42:09;16.40;99.90
30371;DHT22;17164;48.590;11.410;2023-07-09T01:44:36;16.40;99.90
30371;DHT22;17164;48.590;11.410;2023-07-09T01:47:02;16.40;99.90
30371;DHT22;17164;48.590;11.410;2023-07-09T01:49:30;16.40;99.90
30371;DHT22;17164;48.590;11.410;2023-07-09T01:51:59;16.40;99.90
30371;DHT22;17164;48.590;11.410;2023-07-09T01:54:29;16.30;99.90
30371;DHT22;17164;48.590;11.410;2023-07-09T01:57:12;16.30;99.90
30371;DHT22;17164;48.590;11.410;2023-07-09T01:59:37;16.30;99.90
30371;DHT22;17164;48.590;11.410;2023-07-09T02:02:09;16.30;99.90
30371;DHT22;17164;48.590;11.410;2023-07-09T02:04:35;16.30;99.90
30371;DHT22;17164;48.590;11.410;2023-07-09T02:07:00;16.30;99.90
30371;DHT22;17164;48.590;11.410;2023-07-09T02:09:26;16.30;99.90
30371;DHT22;17164;48.590;11.410;2023-07-09T02:11:52;16.30;99.90
30371;DHT22;17164;48.590;11.410;2023-07-09T02:14:17;16.30;99.90
30371;DHT22;17164;48.590;11.410;2023-07-09T02:16:44;16.20;99.90
30371;DHT22;17164;48.590;11.410;2023-07-09T02:19:10;16.20;99.90
30371;DHT22;17164;48.590;11.410;2023-07-09T02:21:35;16.10;99.90
30371;DHT22;17164;48.590;11.410;2023-07-09T02:24:01;16.10;99.90
30371;DHT22;17164;48.590;11.410;2023-07-09T02:26:27;16.10;99.90
30371;DHT22;17164;48.590;11.410;2023-07-09T02:28:53;16.10;99.90
30371;DHT22;17164;48.590;11.410;2023-07-09T02:31:18;16.00;99.90
30371;DHT22;17164;48.590;11.410;2023-07-09T02:33:44;16.00;99.90
30371;DHT22;17164;48.590;11.410;2023-07-09T02:36:10;16.10;99.90
30371;DHT22;17164;48.590;11.410;2023-07-09T02:38:36;16.10;99.90
30371;DHT22;17164;48.590;11.410;2023-07-09T02:41:02;16.10;99.90
30371;DHT22;17164;48.590;11.410;2023-07-09T02:43:27;16.10;99.90
30371;DHT22;17164;48.590;11.410;2023-07-09T02:45:53;16.10;99.90
30371;DHT22;17164;48.590;11.410;2023-07-09T02:48:19;16.10;99.90
30371;DHT22;17164;48.590;11.410;2023-07-09T02:50:44;16.10;99.90
30371;DHT22;17164;48.590;11.410;2023-07-09T02:53:10;16.10;99.90
30371;DHT22;17164;48.590;11.410;2023-07-09T02:55:35;16.10;99.90
30371;DHT22;17164;48.590;11.410;2023-07-09T02:58:01;16.10;99.90
30371;DHT22;17164;48.590;11.410;2023-07-09T03:00:26;16.00;99.90
30371;DHT22;17164;48.590;11.410;2023-07-09T03:02:52;16.00;99.90
30371;DHT22;17164;48.590;11.410;2023-07-09T03:05:19;15.90;99.90
30371;DHT22;17164;48.590;11.410;2023-07-09T03:07:44;15.90;99.90
30371;DHT22;17164;48.590;11.410;2023-07-09T03:10:10;15.90;99.90
30371;DHT22;17164;48.590;11.410;2023-07-09T03:12:35;15.90;99.90
30371;DHT22;17164;48.590;11.410;2023-07-09T03:15:01;15.90;99.90
30371;DHT22;17164;48.590;11.410;2023-07-09T03:17:26;15.80;99.90
30371;DHT22;17164;48.590;11.410;2023-07-09T03:19:52;15.80;99.90
30371;DHT22;17164;48.590;11.410;2023-07-09T03:22:18;15.80;99.90
30371;DHT22;17164;48.590;11.410;2023-07-09T03:24:43;15.80;99.90
30371;DHT22;17164;48.590;11.410;2023-07-09T03:27:09;15.80;99.90
30371;DHT22;17164;48.590;11.410;2023-07-09T03:29:34;15.80;99.90
30371;DHT22;17164;48.590;11.410;2023-07-09T03:32:00;15.70;99.90
30371;DHT22;17164;48.590;11.410;2023-07-09T03:34:26;15.70;99.90
30371;DHT22;17164;48.590;11.410;2023-07-09T03:36:51;15.70;99.90
30371;DHT22;17164;48.590;11.410;2023-07-09T03:39:17;15.70;99.90
30371;DHT22;17164;48.590;11.410;2023-07-09T03:41:43;15.70;99.90
30371;DHT22;17164;48.590;11.410;2023-07-09T03:44:08;15.70;99.90
30371;DHT22;17164;48.590;11.410;2023-07-09T03:46:34;15.80;99.90
30371;DHT22;17164;48.590;11.410;2023-07-09T03:48:59;15.80;99.90
30371;DHT22;17164;48.590;11.410;2023-07-09T03:51:25;15.80;99.90
30371;DHT22;17164;48.590;11.410;2023-07-09T03:53:51;15.80;99.90
30371;DHT22;17164;48.590;11.410;2023-07-09T03:56:16;15.80;99.90
30371;DHT22;17164;48.590;11.410;2023-07-09T03:58:42;15.80;99.90
30371;DHT22;17164;48.590;11.410;2023-07-09T04:01:08;15.80;99.90
30371;DHT22;17164;48.590;11.410;2023-07-09T04:03:33;15.80;99.90
30371;DHT22;17164;48.590;11.410;2023-07-09T04:05:59;15.80;99.90
30371;DHT22;17164;48.590;11.410;2023-07-09T04:08:25;15.90;99.90
30371;DHT22;17164;48.590;11.410;2023-07-09T04:10:54;15.90;99.90
30371;DHT22;17164;48.590;11.410;2023-07-09T04:13:21;15.90;99.90
30371;DHT22;17164;48.590;11.410;2023-07-09T04:15:48;16.00;99.90
30371;DHT22;17164;48.590;11.410;2023-07-09T04:18:13;16.00;99.90
30371;DHT22;17164;48.590;11.410;2023-07-09T04:20:39;16.10;99.90
30371;DHT22;17164;48.590;11.410;2023-07-09T04:23:05;16.10;99.90
30371;DHT22;17164;48.590;11.410;2023-07-09T04:25:31;16.10;99.90
30371;DHT22;17164;48.590;11.410;2023-07-09T04:27:57;16.20;99.90
30371;DHT22;17164;48.590;11.410;2023-07-09T04:30:23;16.20;99.90
30371;DHT22;17164;48.590;11.410;2023-07-09T04:32:49;16.20;99.90
30371;DHT22;17164;48.590;11.410;2023-07-09T04:35:15;16.30;99.90
30371;DHT22;17164;48.590;11.410;2023-07-09T04:37:41;16.30;99.90
30371;DHT22;17164;48.590;11.410;2023-07-09T04:40:08;16.40;99.90
30371;DHT22;17164;48.590;11.410;2023-07-09T04:42:36;16.40;99.90
30371;DHT22;17164;48.590;11.410;2023-07-09T04:45:02;16.50;99.90
30371;DHT22;17164;48.590;11.410;2023-07-09T04:47:27;16.60;99.90
30371;DHT22;17164;48.590;11.410;2023-07-09T04:49:53;16.70;99.90
30371;DHT22;17164;48.590;11.410;2023-07-09T04:52:18;16.70;99.90
30371;DHT22;17164;48.590;11.410;2023-07-09T04:54:44;16.80;99.90
30371;DHT22;17164;48.590;11.410;2023-07-09T04:57:11;16.90;99.90
30371;DHT22;17164;48.590;11.410;2023-07-09T04:59:37;16.90;99.90
30371;DHT22;17164;48.590;11.410;2023-07-09T05:02:03;17.00;99.90
30371;DHT22;17164;48.590;11.410;2023-07-09T05:04:29;17.10;99.90
30371;DHT22;17164;48.590;11.410;2023-07-09T05:06:56;17.20;99.90
30371;DHT22;17164;48.590;11.410;2023-07-09T05:09:22;17.30;99.90
30371;DHT22;17164;48.590;11.410;2023-07-09T05:11:48;17.30;99.90
30371;DHT22;17164;48.590;11.410;2023-07-09T05:14:14;17.40;99.90
30371;DHT22;17164;48.590;11.410;2023-07-09T05:16:40;17.50;99.90
30371;DHT22;17164;48.590;11.410;2023-07-09T05:19:07;17.60;99.90
30371;DHT22;17164;48.590;11.410;2023-07-09T05:21:33;17.60;99.90
30371;DHT22;17164;48.590;11.410;2023-07-09T05:23:59;17.70;99.90
30371;DHT22;17164;48.590;11.410;2023-07-09T05:26:25;17.80;99.90
30371;DHT22;17164;48.590;11.410;2023-07-09T05:28:51;17.90;99.90
30371;DHT22;17164;48.590;11.410;2023-07-09T05:31:16;17.90;99.90
30371;DHT22;17164;48.590;11.410;2023-07-09T05:33:42;18.00;99.90
30371;DHT22;17164;48.590;11.410;2023-07-09T05:36:09;18.10;99.90
30371;DHT22;17164;48.590;11.410;2023-07-09T05:38:44;18.20;99.90
30371;DHT22;17164;48.590;11.410;2023-07-09T05:41:11;18.30;99.90
30371;DHT22;17164;48.590;11.410;2023-07-09T05:43:36;18.40;99.90
30371;DHT22;17164;48.590;11.410;2023-07-09T05:46:04;18.50;99.90
30371;DHT22;17164;48.590;11.410;2023-07-09T05:48:29;18.60;99.90
30371;DHT22;17164;48.590;11.410;2023-07-09T05:50:55;18.70;99.90
30371;DHT22;17164;48.590;11.410;2023-07-09T05:53:21;18.80;99.90
30371;DHT22;17164;48.590;11.410;2023-07-09T05:55:47;18.90;99.90
30371;DHT22;17164;48.590;11.410;2023-07-09T05:58:13;19.00;99.90
30371;DHT22;17164;48.590;11.410;2023-07-09T06:00:38;19.10;99.90
30371;DHT22;17164;48.590;11.410;2023-07-09T06:03:05;19.10;99.90
30371;DHT22;17164;48.590;11.410;2023-07-09T06:05:33;19.30;99.90
30371;DHT22;17164;48.590;11.410;2023-07-09T06:07:59;19.40;99.90
30371;DHT22;17164;48.590;11.410;2023-07-09T06:10:25;19.50;99.90
30371;DHT22;17164;48.590;11.410;2023-07-09T06:12:50;19.60;99.90
30371;DHT22;17164;48.590;11.410;2023-07-09T06:15:16;19.70;99.90
30371;DHT22;17164;48.590;11.410;2023-07-09T06:17:41;19.90;99.90
30371;DHT22;17164;48.590;11.410;2023-07-09T06:20:08;20.00;99.90
30371;DHT22;17164;48.590;11.410;2023-07-09T06:22:34;20.00;99.90
30371;DHT22;17164;48.590;11.410;2023-07-09T06:24:59;20.20;99.90
30371;DHT22;17164;48.590;11.410;2023-07-09T06:27:25;20.30;99.90
30371;DHT22;17164;48.590;11.410;2023-07-09T06:29:51;20.40;99.90
30371;DHT22;17164;48.590;11.410;2023-07-09T06:32:17;20.50;99.90
30371;DHT22;17164;48.590;11.410;2023-07-09T06:34:43;20.60;99.90
30371;DHT22;17164;48.590;11.410;2023-07-09T06:37:08;20.70;99.90
30371;DHT22;17164;48.590;11.410;2023-07-09T06:39:34;20.80;99.90
30371;DHT22;17164;48.590;11.410;2023-07-09T06:41:59;20.90;99.90
30371;DHT22;17164;48.590;11.410;2023-07-09T06:44:26;21.10;99.90
30371;DHT22;17164;48.590;11.410;2023-07-09T06:46:52;21.20;99.90
30371;DHT22;17164;48.590;11.410;2023-07-09T06:49:17;21.30;99.90
30371;DHT22;17164;48.590;11.410;2023-07-09T06:51:43;21.40;99.90
30371;DHT22;17164;48.590;11.410;2023-07-09T06:54:09;21.50;99.90
30371;DHT22;17164;48.590;11.410;2023-07-09T06:56:35;21.60;99.90
30371;DHT22;17164;48.590;11.410;2023-07-09T06:59:00;21.80;99.90
30371;DHT22;17164;48.590;11.410;2023-07-09T07:01:26;21.90;99.90
30371;DHT22;17164;48.590;11.410;2023-07-09T07:03:51;22.00;99.90
30371;DHT22;17164;48.590;11.410;2023-07-09T07:06:17;22.20;99.90
30371;DHT22;17164;48.590;11.410;2023-07-09T07:08:43;22.30;99.90
30371;DHT22;17164;48.590;11.410;2023-07-09T07:11:09;22.40;99.90
30371;DHT22;17164;48.590;11.410;2023-07-09T07:13:36;22.50;99.90
30371;DHT22;17164;48.590;11.410;2023-07-09T07:16:05;22.70;99.90
30371;DHT22;17164;48.590;11.410;2023-07-09T07:18:31;22.80;99.90
30371;DHT22;17164;48.590;11.410;2023-07-09T07:20:56;23.00;99.90
30371;DHT22;17164;48.590;11.410;2023-07-09T07:23:22;23.10;99.90
30371;DHT22;17164;48.590;11.410;2023-07-09T07:25:49;23.20;99.90
30371;DHT22;17164;48.590;11.410;2023-07-09T07:28:15;23.30;99.90
30371;DHT22;17164;48.590;11.410;2023-07-09T07:30:41;23.50;99.90
30371;DHT22;17164;48.590;11.410;2023-07-09T07:33:07;23.60;99.90
30371;DHT22;17164;48.590;11.410;2023-07-09T07:35:32;23.70;99.90
30371;DHT22;17164;48.590;11.410;2023-07-09T07:37:58;23.90;99.90
30371;DHT22;17164;48.590;11.410;2023-07-09T07:40:24;24.00;99.90
30371;DHT22;17164;48.590;11.410;2023-07-09T07:42:49;24.10;99.90
30371;DHT22;17164;48.590;11.410;2023-07-09T07:45:16;24.30;99.90
30371;DHT22;17164;48.590;11.410;2023-07-09T07:47:41;24.40;99.90
30371;DHT22;17164;48.590;11.410;2023-07-09T07:50:08;24.50;99.30
30371;DHT22;17164;48.590;11.410;2023-07-09T07:52:34;24.60;98.70
30371;DHT22;17164;48.590;11.410;2023-07-09T07:55:06;24.80;98.20
30371;DHT22;17164;48.590;11.410;2023-07-09T07:57:32;24.90;98.40
30371;DHT22;17164;48.590;11.410;2023-07-09T07:59:57;25.00;97.10
30371;DHT22;17164;48.590;11.410;2023-07-09T08:02:24;25.20;96.60
30371;DHT22;17164;48.590;11.410;2023-07-09T08:04:50;25.30;95.00
30371;DHT22;17164;48.590;11.410;2023-07-09T08:07:17;25.40;96.60
30371;DHT22;17164;48.590;11.410;2023-07-09T08:09:43;25.60;96.10
30371;DHT22;17164;48.590;11.410;2023-07-09T08:12:10;25.70;95.00
30371;DHT22;17164;48.590;11.410;2023-07-09T08:14:38;25.90;95.40
30371;DHT22;17164;48.590;11.410;2023-07-09T08:17:04;26.10;95.00
30371;DHT22;17164;48.590;11.410;2023-07-09T08:19:31;26.20;94.80
30371;DHT22;17164;48.590;11.410;2023-07-09T08:21:56;26.40;93.90
30371;DHT22;17164;48.590;11.410;2023-07-09T08:24:22;26.60;93.60
30371;DHT22;17164;48.590;11.410;2023-07-09T08:26:48;26.70;92.80
30371;DHT22;17164;48.590;11.410;2023-07-09T08:29:13;26.90;92.80
30371;DHT22;17164;48.590;11.410;2023-07-09T08:31:39;27.00;92.40
30371;DHT22;17164;48.590;11.410;2023-07-09T08:34:07;27.10;91.80
30371;DHT22;17164;48.590;11.410;2023-07-09T08:36:32;27.30;91.10
30371;DHT22;17164;48.590;11.410;2023-07-09T08:38:58;27.40;90.60
30371;DHT22;17164;48.590;11.410;2023-07-09T08:44:14;27.60;90.50
30371;DHT22;17164;48.590;11.410;2023-07-09T08:46:52;27.70;90.30
30371;DHT22;17164;48.590;11.410;2023-07-09T08:50:14;27.90;88.70
30371;DHT22;17164;48.590;11.410;2023-07-09T08:52:36;28.10;86.60
30371;DHT22;17164;48.590;11.410;2023-07-09T08:55:15;28.20;86.70
30371;DHT22;17164;48.590;11.410;2023-07-09T08:57:54;28.40;85.70
30371;DHT22;17164;48.590;11.410;2023-07-09T09:02:52;28.70;82.20
30371;DHT22;17164;48.590;11.410;2023-07-09T09:05:22;28.80;81.80
30371;DHT22;17164;48.590;11.410;2023-07-09T09:08:03;29.00;80.30
30371;DHT22;17164;48.590;11.410;2023-07-09T09:10:33;29.20;78.80
30371;DHT22;17164;48.590;11.410;2023-07-09T09:13:05;29.30;77.00
30371;DHT22;17164;48.590;11.410;2023-07-09T09:15:31;29.30;75.60
30371;DHT22;17164;48.590;11.410;2023-07-09T09:18:21;29.40;73.70
30371;DHT22;17164;48.590;11.410;2023-07-09T09:23:38;29.60;75.00
30371;DHT22;17164;48.590;11.410;2023-07-09T09:26:09;29.60;69.10
30371;DHT22;17164;48.590;11.410;2023-07-09T09:28:39;29.60;68.00
30371;DHT22;17164;48.590;11.410;2023-07-09T09:31:05;29.60;67.60
30371;DHT22;17164;48.590;11.410;2023-07-09T09:33:46;29.70;67.60
30371;DHT22;17164;48.590;11.410;2023-07-09T09:36:18;29.70;67.80
30371;DHT22;17164;48.590;11.410;2023-07-09T09:38:44;29.80;65.70
30371;DHT22;17164;48.590;11.410;2023-07-09T09:41:15;30.00;66.90
30371;DHT22;17164;48.590;11.410;2023-07-09T09:43:43;30.10;68.40
30371;DHT22;17164;48.590;11.410;2023-07-09T09:46:09;30.30;69.80
30371;DHT22;17164;48.590;11.410;2023-07-09T09:48:45;30.50;66.40
30371;DHT22;17164;48.590;11.410;2023-07-09T09:51:12;30.60;67.20
30371;DHT22;17164;48.590;11.410;2023-07-09T09:53:41;30.70;67.00
30371;DHT22;17164;48.590;11.410;2023-07-09T09:56:17;30.80;64.60
30371;DHT22;17164;48.590;11.410;2023-07-09T09:58:44;30.90;65.90
30371;DHT22;17164;48.590;11.410;2023-07-09T10:01:17;31.10;63.40
30371;DHT22;17164;48.590;11.410;2023-07-09T10:03:46;31.10;62.50
30371;DHT22;17164;48.590;11.410;2023-07-09T10:06:19;31.20;63.60
30371;DHT22;17164;48.590;11.410;2023-07-09T10:09:13;31.20;62.40
30371;DHT22;17164;48.590;11.410;2023-07-09T10:19:50;31.30;61.20
30371;DHT22;17164;48.590;11.410;2023-07-09T10:22:37;31.30;60.50
30371;DHT22;17164;48.590;11.410;2023-07-09T10:25:33;31.30;60.10
30371;DHT22;17164;48.590;11.410;2023-07-09T10:31:25;31.50;58.80
30371;DHT22;17164;48.590;11.410;2023-07-09T10:34:09;31.50;59.90
30371;DHT22;17164;48.590;11.410;2023-07-09T10:37:04;31.60;60.20
30371;DHT22;17164;48.590;11.410;2023-07-09T10:39:38;31.80;58.70
30371;DHT22;17164;48.590;11.410;2023-07-09T10:42:29;31.90;57.60
30371;DHT22;17164;48.590;11.410;2023-07-09T10:45:23;31.90;57.80
30371;DHT22;17164;48.590;11.410;2023-07-09T10:48:16;32.00;57.70
30371;DHT22;17164;48.590;11.410;2023-07-09T10:50:50;32.10;57.80
30371;DHT22;17164;48.590;11.410;2023-07-09T10:53:33;32.20;57.50
30371;DHT22;17164;48.590;11.410;2023-07-09T10:56:11;32.40;57.00
30371;DHT22;17164;48.590;11.410;2023-07-09T11:01:39;32.50;55.10
30371;DHT22;17164;48.590;11.410;2023-07-09T11:04:11;32.60;55.30
30371;DHT22;17164;48.590;11.410;2023-07-09T11:06:41;32.70;55.60
30371;DHT22;17164;48.590;11.410;2023-07-09T11:09:24;32.90;54.70
30371;DHT22;17164;48.590;11.410;2023-07-09T11:11:54;33.00;53.50
30371;DHT22;17164;48.590;11.410;2023-07-09T11:17:15;33.10;51.50
30371;DHT22;17164;48.590;11.410;2023-07-09T11:19:43;33.10;52.40
30371;DHT22;17164;48.590;11.410;2023-07-09T11:22:21;33.20;51.50
30371;DHT22;17164;48.590;11.410;2023-07-09T11:27:32;33.20;50.80
30371;DHT22;17164;48.590;11.410;2023-07-09T11:30:16;33.20;51.80
30371;DHT22;17164;48.590;11.410;2023-07-09T11:32:47;33.20;51.70
30371;DHT22;17164;48.590;11.410;2023-07-09T11:35:22;33.10;51.10
30371;DHT22;17164;48.590;11.410;2023-07-09T11:37:48;33.10;52.00
30371;DHT22;17164;48.590;11.410;2023-07-09T11:40:15;33.10;51.10
30371;DHT22;17164;48.590;11.410;2023-07-09T11:42:53;33.10;51.70
30371;DHT22;17164;48.590;11.410;2023-07-09T11:45:28;33.20;51.30
30371;DHT22;17164;48.590;11.410;2023-07-09T11:48:23;33.20;50.80
30371;DHT22;17164;48.590;11.410;2023-07-09T11:50:51;33.30;50.40
30371;DHT22;17164;48.590;11.410;2023-07-09T11:56:08;33.20;49.80
30371;DHT22;17164;48.590;11.410;2023-07-09T11:58:34;33.20;50.20
30371;DHT22;17164;48.590;11.410;2023-07-09T12:01:01;33.20;50.90
30371;DHT22;17164;48.590;11.410;2023-07-09T12:03:32;33.30;48.70
30371;DHT22;17164;48.590;11.410;2023-07-09T12:06:13;33.30;49.70
30371;DHT22;17164;48.590;11.410;2023-07-09T12:08:42;33.40;48.90
30371;DHT22;17164;48.590;11.410;2023-07-09T12:11:32;33.50;48.40
30371;DHT22;17164;48.590;11.410;2023-07-09T12:14:08;33.50;47.40
30371;DHT22;17164;48.590;11.410;2023-07-09T12:16:39;33.50;46.30
30371;DHT22;17164;48.590;11.410;2023-07-09T12:19:05;33.60;48.40
30371;DHT22;17164;48.590;11.410;2023-07-09T12:21:34;33.70;47.10
30371;DHT22;17164;48.590;11.410;2023-07-09T12:24:00;33.70;47.80
30371;DHT22;17164;48.590;11.410;2023-07-09T12:26:30;33.80;47.80
30371;DHT22;17164;48.590;11.410;2023-07-09T12:28:57;33.90;47.70
30371;DHT22;17164;48.590;11.410;2023-07-09T12:31:29;33.90;47.30
30371;DHT22;17164;48.590;11.410;2023-07-09T12:33:57;33.90;47.50
30371;DHT22;17164;48.590;11.410;2023-07-09T12:36:27;33.90;47.20
30371;DHT22;17164;48.590;11.410;2023-07-09T12:38:56;33.90;48.20
30371;DHT22;17164;48.590;11.410;2023-07-09T12:43:51;33.70;46.80
30371;DHT22;17164;48.590;11.410;2023-07-09T12:46:17;33.70;46.90
30371;DHT22;17164;48.590;11.410;2023-07-09T12:48:45;33.70;46.50
30371;DHT22;17164;48.590;11.410;2023-07-09T12:51:27;33.70;46.90
30371;DHT22;17164;48.590;11.410;2023-07-09T12:54:13;33.80;47.30
30371;DHT22;17164;48.590;11.410;2023-07-09T12:56:40;33.80;48.20
30371;DHT22;17164;48.590;11.410;2023-07-09T13:01:54;34.00;46.80
30371;DHT22;17164;48.590;11.410;2023-07-09T13:04:19;34.00;46.10
30371;DHT22;17164;48.590;11.410;2023-07-09T13:06:46;34.10;45.40
30371;DHT22;17164;48.590;11.410;2023-07-09T13:09:18;34.10;46.50
30371;DHT22;17164;48.590;11.410;2023-07-09T13:11:45;34.20;48.40
30371;DHT22;17164;48.590;11.410;2023-07-09T13:14:25;34.30;47.80
30371;DHT22;17164;48.590;11.410;2023-07-09T13:16:52;34.40;46.90
30371;DHT22;17164;48.590;11.410;2023-07-09T13:19:18;34.50;46.60
30371;DHT22;17164;48.590;11.410;2023-07-09T13:21:45;34.60;47.00
30371;DHT22;17164;48.590;11.410;2023-07-09T13:24:19;34.70;46.00
30371;DHT22;17164;48.590;11.410;2023-07-09T13:26:45;34.70;46.00
30371;DHT22;17164;48.590;11.410;2023-07-09T13:29:14;34.70;44.60
30371;DHT22;17164;48.590;11.410;2023-07-09T13:31:39;34.60;44.10
30371;DHT22;17164;48.590;11.410;2023-07-09T13:36:41;34.30;46.00
30371;DHT22;17164;48.590;11.410;2023-07-09T13:39:10;34.30;46.90
30371;DHT22;17164;48.590;11.410;2023-07-09T13:41:36;34.40;48.40
30371;DHT22;17164;48.590;11.410;2023-07-09T13:44:11;34.50;47.10
30371;DHT22;17164;48.590;11.410;2023-07-09T13:46:37;34.60;45.70
30371;DHT22;17164;48.590;11.410;2023-07-09T13:49:15;34.60;45.30
30371;DHT22;17164;48.590;11.410;2023-07-09T13:51:41;34.60;44.90
30371;DHT22;17164;48.590;11.410;2023-07-09T13:54:29;34.70;45.00
30371;DHT22;17164;48.590;11.410;2023-07-09T13:57:01;34.60;45.60
30371;DHT22;17164;48.590;11.410;2023-07-09T13:59:28;34.70;45.30
30371;DHT22;17164;48.590;11.410;2023-07-09T14:01:56;34.70;44.20
30371;DHT22;17164;48.590;11.410;2023-07-09T14:04:22;34.70;43.60
30371;DHT22;17164;48.590;11.410;2023-07-09T14:06:48;34.60;43.70
30371;DHT22;17164;48.590;11.410;2023-07-09T14:09:14;34.60;43.30
30371;DHT22;17164;48.590;11.410;2023-07-09T14:11:44;34.60;43.60
30371;DHT22;17164;48.590;11.410;2023-07-09T14:14:25;34.60;43.50
30371;DHT22;17164;48.590;11.410;2023-07-09T14:16:51;34.60;44.00
30371;DHT22;17164;48.590;11.410;2023-07-09T14:19:20;34.60;45.30
30371;DHT22;17164;48.590;11.410;2023-07-09T14:21:47;34.60;42.40
30371;DHT22;17164;48.590;11.410;2023-07-09T14:24:25;34.70;44.80
30371;DHT22;17164;48.590;11.410;2023-07-09T14:26:52;34.60;43.60
30371;DHT22;17164;48.590;11.410;2023-07-09T14:29:18;34.60;43.70
30371;DHT22;17164;48.590;11.410;2023-07-09T14:31:44;34.60;44.20
30371;DHT22;17164;48.590;11.410;2023-07-09T14:34:18;34.70;45.00
30371;DHT22;17164;48.590;11.410;2023-07-09T14:36:45;34.70;42.50
30371;DHT22;17164;48.590;11.410;2023-07-09T14:39:11;34.80;43.20
30371;DHT22;17164;48.590;11.410;2023-07-09T14:41:37;34.80;44.70
30371;DHT22;17164;48.590;11.410;2023-07-09T14:44:02;34.90;44.00
30371;DHT22;17164;48.590;11.410;2023-07-09T14:46:28;34.90;42.80
30371;DHT22;17164;48.590;11.410;2023-07-09T14:48:54;34.90;42.90
30371;DHT22;17164;48.590;11.410;2023-07-09T14:51:19;34.80;41.70
30371;DHT22;17164;48.590;11.410;2023-07-09T14:53:45;34.80;41.90
30371;DHT22;17164;48.590;11.410;2023-07-09T14:56:13;34.80;42.20
30371;DHT22;17164;48.590;11.410;2023-07-09T14:58:39;34.90;42.90
30371;DHT22;17164;48.590;11.410;2023-07-09T15:01:05;35.00;42.20
30371;DHT22;17164;48.590;11.410;2023-07-09T15:03:34;35.00;43.00
30371;DHT22;17164;48.590;11.410;2023-07-09T15:06:00;35.00;43.00
30371;DHT22;17164;48.590;11.410;2023-07-09T15:08:28;35.10;42.60
30371;DHT22;17164;48.590;11.410;2023-07-09T15:10:54;35.10;42.40
30371;DHT22;17164;48.590;11.410;2023-07-09T15:13:31;35.20;42.20
30371;DHT22;17164;48.590;11.410;2023-07-09T15:15:58;35.20;44.10
30371;DHT22;17164;48.590;11.410;2023-07-09T15:18:23;35.20;44.80
30371;DHT22;17164;48.590;11.410;2023-07-09T15:20:58;35.10;44.40
30371;DHT22;17164;48.590;11.410;2023-07-09T15:23:24;35.10;43.70
30371;DHT22;17164;48.590;11.410;2023-07-09T15:25:51;35.10;44.00
30371;DHT22;17164;48.590;11.410;2023-07-09T15:28:17;35.00;44.10
30371;DHT22;17164;48.590;11.410;2023-07-09T15:30:43;35.10;43.20
30371;DHT22;17164;48.590;11.410;2023-07-09T15:33:14;35.10;43.40
30371;DHT22;17164;48.590;11.410;2023-07-09T15:35:41;35.10;44.20
30371;DHT22;17164;48.590;11.410;2023-07-09T15:38:31;35.20;43.80
30371;DHT22;17164;48.590;11.410;2023-07-09T15:40:57;35.20;43.50
30371;DHT22;17164;48.590;11.410;2023-07-09T15:43:24;35.30;44.30
30371;DHT22;17164;48.590;11.410;2023-07-09T15:45:51;35.30;43.60
30371;DHT22;17164;48.590;11.410;2023-07-09T15:48:35;35.40;42.40
30371;DHT22;17164;48.590;11.410;2023-07-09T15:51:02;35.30;42.20
30371;DHT22;17164;48.590;11.410;2023-07-09T15:53:28;35.40;41.80
30371;DHT22;17164;48.590;11.410;2023-07-09T15:55:58;35.30;42.00
30371;DHT22;17164;48.590;11.410;2023-07-09T15:58:27;35.40;43.20
30371;DHT22;17164;48.590;11.410;2023-07-09T16:00:53;35.50;42.90
30371;DHT22;17164;48.590;11.410;2023-07-09T16:03:19;35.70;43.00
30371;DHT22;17164;48.590;11.410;2023-07-09T16:05:44;35.80;43.40
30371;DHT22;17164;48.590;11.410;2023-07-09T16:08:11;35.80;42.50